Hauptseite
METAR-TAF:

METAR-TAF

Flughäfen :

Tinian, Marianen, Vereinigte Staaten

Breite: 14-59N, Länge: 145-37E, Höhe: 82 m

Beobachtung

Neuester Wetterbericht von vor 12 Stunden und 41 Minuten, um 08:50 UTC
Wind 8 kt aus Ost
Temperatur 27°C
Luftfeuchtigkeit 84%
Luftdruck 1014 hPa
Sichtweite: 11.3 km
Aufgelockert bewölkt in der Höhe von 1800 ft

METAR: PGWT 150850Z 09008KT 7SM SCT018 27/24 A2993 RMK LAST

Zeit: 07:31 (21:31 UTC)

Prognose

Neuester Wetterbericht von vor 16 Stunden und 3 Minuten, um 05:28 UTC
Gültige Prognose vom 15 um 06 UTC bis 16 um 06 UTC
Wind 11 kt aus Ost
Sichtweite: 10 km
Aufgelockert bewölkt in der Höhe von 2000 ft
Aufgelockert bewölkt in der Höhe von 12000 ft
Schauer in der Nähe
Zeitweise
vom 15 um 06 UTC bis 15 um 10 UTC
Wind 11 kt aus Ost, Böen bis zu 22 kt

TAF: PGWT 150528Z 1506/1606 09011KT P6SM VCSH SCT020 SCT120 TEMPO 1506/1510 09011G22KT

Wetterbeobachtungen und Prognosen von mehr als 4000 Flughäfen (METAR und TAF Bericht).

Die verfügbaren Stationen werden durch gelbe und rote Markierungen auf der Karte dargestellt.

Führen Sie die Maus auf sie, um den Namen der Station zu sehen.

Darauf klicken, um die Beobachtung von Wetterbeobachtungen und Prognosen zu sehen.

Um die Karte zu ändern : klicken Sie auf den grünen Tasten mit einem schwarzen Kreuz Zum Vergrößern, auf den grünen Button mit einem Gedankenstrich zu verkleinern, oder auf die grünen Pfeile für benachbarte Karten.


METAR-TAF: